sensor_id;sensor_type;location;lat;lon;timestamp;P1;durP1;ratioP1;P2;durP2;ratioP2
41661;SDS011;27351;45.992;12.666;2024-01-25T00:00:14;19.63;;;11.13;;
41661;SDS011;27351;45.992;12.666;2024-01-25T00:02:40;21.80;;;11.38;;
41661;SDS011;27351;45.992;12.666;2024-01-25T00:05:06;23.27;;;12.17;;
41661;SDS011;27351;45.992;12.666;2024-01-25T00:07:32;22.67;;;12.93;;
41661;SDS011;27351;45.992;12.666;2024-01-25T00:09:57;23.48;;;11.18;;
41661;SDS011;27351;45.992;12.666;2024-01-25T00:12:23;21.73;;;11.65;;
41661;SDS011;27351;45.992;12.666;2024-01-25T00:14:48;20.67;;;11.32;;
41661;SDS011;27351;45.992;12.666;2024-01-25T00:17:14;18.05;;;10.35;;
41661;SDS011;27351;45.992;12.666;2024-01-25T00:19:39;18.38;;;10.07;;
41661;SDS011;27351;45.992;12.666;2024-01-25T00:22:06;19.73;;;11.38;;
41661;SDS011;27351;45.992;12.666;2024-01-25T00:24:32;20.92;;;11.05;;
41661;SDS011;27351;45.992;12.666;2024-01-25T00:26:58;22.77;;;12.10;;
41661;SDS011;27351;45.992;12.666;2024-01-25T00:29:24;22.48;;;12.10;;
41661;SDS011;27351;45.992;12.666;2024-01-25T00:31:49;22.10;;;12.07;;
41661;SDS011;27351;45.992;12.666;2024-01-25T00:34:15;19.90;;;11.13;;
41661;SDS011;27351;45.992;12.666;2024-01-25T00:36:41;21.33;;;11.40;;
41661;SDS011;27351;45.992;12.666;2024-01-25T00:39:07;18.92;;;10.60;;
41661;SDS011;27351;45.992;12.666;2024-01-25T00:41:33;21.98;;;11.15;;
41661;SDS011;27351;45.992;12.666;2024-01-25T00:44:00;21.47;;;11.90;;
41661;SDS011;27351;45.992;12.666;2024-01-25T00:46:25;20.15;;;10.95;;
41661;SDS011;27351;45.992;12.666;2024-01-25T00:48:51;19.92;;;11.77;;
41661;SDS011;27351;45.992;12.666;2024-01-25T00:51:19;23.02;;;11.38;;
41661;SDS011;27351;45.992;12.666;2024-01-25T00:53:46;24.13;;;11.48;;
41661;SDS011;27351;45.992;12.666;2024-01-25T00:56:11;19.77;;;11.17;;
41661;SDS011;27351;45.992;12.666;2024-01-25T00:58:37;23.38;;;11.35;;
41661;SDS011;27351;45.992;12.666;2024-01-25T01:01:03;20.98;;;11.10;;
41661;SDS011;27351;45.992;12.666;2024-01-25T01:03:29;23.43;;;12.07;;
41661;SDS011;27351;45.992;12.666;2024-01-25T01:05:55;21.73;;;11.53;;
41661;SDS011;27351;45.992;12.666;2024-01-25T01:08:22;21.10;;;11.70;;
41661;SDS011;27351;45.992;12.666;2024-01-25T01:10:48;21.20;;;10.70;;
41661;SDS011;27351;45.992;12.666;2024-01-25T01:13:13;18.40;;;10.45;;
41661;SDS011;27351;45.992;12.666;2024-01-25T01:15:39;21.75;;;10.63;;
41661;SDS011;27351;45.992;12.666;2024-01-25T01:18:05;22.35;;;11.00;;
41661;SDS011;27351;45.992;12.666;2024-01-25T01:20:30;19.42;;;11.25;;
41661;SDS011;27351;45.992;12.666;2024-01-25T01:22:56;20.27;;;11.13;;
41661;SDS011;27351;45.992;12.666;2024-01-25T01:25:22;19.13;;;11.40;;
41661;SDS011;27351;45.992;12.666;2024-01-25T01:27:47;20.80;;;11.53;;
41661;SDS011;27351;45.992;12.666;2024-01-25T01:30:13;18.93;;;10.43;;
41661;SDS011;27351;45.992;12.666;2024-01-25T01:32:39;22.43;;;11.20;;
41661;SDS011;27351;45.992;12.666;2024-01-25T01:35:04;22.27;;;11.37;;
41661;SDS011;27351;45.992;12.666;2024-01-25T01:37:30;20.75;;;11.15;;
41661;SDS011;27351;45.992;12.666;2024-01-25T01:39:56;21.00;;;10.60;;
41661;SDS011;27351;45.992;12.666;2024-01-25T01:42:24;19.92;;;10.55;;
41661;SDS011;27351;45.992;12.666;2024-01-25T01:44:50;19.80;;;11.20;;
41661;SDS011;27351;45.992;12.666;2024-01-25T01:47:15;22.10;;;10.88;;
41661;SDS011;27351;45.992;12.666;2024-01-25T01:49:42;21.80;;;10.77;;
41661;SDS011;27351;45.992;12.666;2024-01-25T01:52:08;22.50;;;11.05;;
41661;SDS011;27351;45.992;12.666;2024-01-25T01:54:33;20.45;;;9.85;;
41661;SDS011;27351;45.992;12.666;2024-01-25T01:56:59;20.73;;;10.52;;
41661;SDS011;27351;45.992;12.666;2024-01-25T01:59:25;19.25;;;9.88;;
41661;SDS011;27351;45.992;12.666;2024-01-25T02:01:51;22.15;;;10.38;;
41661;SDS011;27351;45.992;12.666;2024-01-25T02:04:17;21.90;;;10.18;;
41661;SDS011;27351;45.992;12.666;2024-01-25T02:06:42;20.27;;;9.90;;
41661;SDS011;27351;45.992;12.666;2024-01-25T02:09:09;21.95;;;10.02;;
41661;SDS011;27351;45.992;12.666;2024-01-25T02:11:35;18.37;;;9.40;;
41661;SDS011;27351;45.992;12.666;2024-01-25T02:14:01;18.80;;;10.05;;
41661;SDS011;27351;45.992;12.666;2024-01-25T02:16:26;17.58;;;9.23;;
41661;SDS011;27351;45.992;12.666;2024-01-25T02:18:52;19.15;;;9.60;;
41661;SDS011;27351;45.992;12.666;2024-01-25T02:21:19;21.42;;;11.05;;
41661;SDS011;27351;45.992;12.666;2024-01-25T02:23:45;16.90;;;8.77;;
41661;SDS011;27351;45.992;12.666;2024-01-25T02:26:10;18.77;;;9.80;;
41661;SDS011;27351;45.992;12.666;2024-01-25T02:28:36;18.73;;;9.85;;
41661;SDS011;27351;45.992;12.666;2024-01-25T02:31:02;18.75;;;9.25;;
41661;SDS011;27351;45.992;12.666;2024-01-25T02:33:28;22.35;;;10.68;;
41661;SDS011;27351;45.992;12.666;2024-01-25T02:35:53;20.33;;;10.70;;
41661;SDS011;27351;45.992;12.666;2024-01-25T02:38:19;20.07;;;9.97;;
41661;SDS011;27351;45.992;12.666;2024-01-25T02:40:44;19.33;;;10.17;;
41661;SDS011;27351;45.992;12.666;2024-01-25T02:43:10;18.83;;;10.10;;
41661;SDS011;27351;45.992;12.666;2024-01-25T02:45:36;19.03;;;9.30;;
41661;SDS011;27351;45.992;12.666;2024-01-25T02:48:01;17.90;;;9.07;;
41661;SDS011;27351;45.992;12.666;2024-01-25T02:50:30;20.75;;;10.68;;
41661;SDS011;27351;45.992;12.666;2024-01-25T02:52:55;18.30;;;9.73;;
41661;SDS011;27351;45.992;12.666;2024-01-25T02:55:21;21.40;;;9.63;;
41661;SDS011;27351;45.992;12.666;2024-01-25T02:57:46;19.70;;;10.00;;
41661;SDS011;27351;45.992;12.666;2024-01-25T03:00:12;21.20;;;9.73;;
41661;SDS011;27351;45.992;12.666;2024-01-25T03:02:38;18.13;;;9.48;;
41661;SDS011;27351;45.992;12.666;2024-01-25T03:05:04;20.08;;;10.23;;
41661;SDS011;27351;45.992;12.666;2024-01-25T03:07:29;19.05;;;9.52;;
41661;SDS011;27351;45.992;12.666;2024-01-25T03:09:55;16.50;;;8.75;;
41661;SDS011;27351;45.992;12.666;2024-01-25T03:12:20;19.20;;;9.55;;
41661;SDS011;27351;45.992;12.666;2024-01-25T03:14:46;18.63;;;9.83;;
41661;SDS011;27351;45.992;12.666;2024-01-25T03:17:11;18.20;;;9.45;;
41661;SDS011;27351;45.992;12.666;2024-01-25T03:19:37;19.70;;;10.40;;
41661;SDS011;27351;45.992;12.666;2024-01-25T03:22:03;17.88;;;9.88;;
41661;SDS011;27351;45.992;12.666;2024-01-25T03:24:29;21.77;;;10.70;;
41661;SDS011;27351;45.992;12.666;2024-01-25T03:26:54;17.23;;;9.68;;
41661;SDS011;27351;45.992;12.666;2024-01-25T03:29:20;18.75;;;10.02;;
41661;SDS011;27351;45.992;12.666;2024-01-25T03:31:45;19.05;;;8.95;;
41661;SDS011;27351;45.992;12.666;2024-01-25T03:34:11;21.55;;;10.15;;
41661;SDS011;27351;45.992;12.666;2024-01-25T03:36:37;17.90;;;9.40;;
41661;SDS011;27351;45.992;12.666;2024-01-25T03:39:05;19.55;;;9.77;;
41661;SDS011;27351;45.992;12.666;2024-01-25T03:41:30;18.87;;;9.87;;
41661;SDS011;27351;45.992;12.666;2024-01-25T03:43:56;16.87;;;9.40;;
41661;SDS011;27351;45.992;12.666;2024-01-25T03:46:21;19.10;;;9.90;;
41661;SDS011;27351;45.992;12.666;2024-01-25T03:48:47;19.20;;;9.73;;
41661;SDS011;27351;45.992;12.666;2024-01-25T03:51:13;19.00;;;10.35;;
41661;SDS011;27351;45.992;12.666;2024-01-25T03:53:38;19.80;;;10.70;;
41661;SDS011;27351;45.992;12.666;2024-01-25T03:56:10;23.40;;;10.40;;
41661;SDS011;27351;45.992;12.666;2024-01-25T03:58:36;19.35;;;9.48;;
41661;SDS011;27351;45.992;12.666;2024-01-25T04:01:02;20.70;;;10.95;;
41661;SDS011;27351;45.992;12.666;2024-01-25T04:03:28;19.63;;;9.88;;
41661;SDS011;27351;45.992;12.666;2024-01-25T04:05:53;18.40;;;10.20;;
41661;SDS011;27351;45.992;12.666;2024-01-25T04:08:19;18.65;;;9.88;;
41661;SDS011;27351;45.992;12.666;2024-01-25T04:10:45;18.63;;;10.02;;
41661;SDS011;27351;45.992;12.666;2024-01-25T04:13:10;20.85;;;10.90;;
41661;SDS011;27351;45.992;12.666;2024-01-25T04:15:36;21.23;;;10.88;;
41661;SDS011;27351;45.992;12.666;2024-01-25T04:18:02;20.42;;;11.40;;
41661;SDS011;27351;45.992;12.666;2024-01-25T04:20:28;22.52;;;10.85;;
41661;SDS011;27351;45.992;12.666;2024-01-25T04:22:53;19.83;;;10.35;;
41661;SDS011;27351;45.992;12.666;2024-01-25T04:25:19;23.25;;;10.95;;
41661;SDS011;27351;45.992;12.666;2024-01-25T04:27:45;18.52;;;11.15;;
41661;SDS011;27351;45.992;12.666;2024-01-25T04:30:10;19.15;;;11.73;;
41661;SDS011;27351;45.992;12.666;2024-01-25T04:32:36;23.88;;;12.55;;
41661;SDS011;27351;45.992;12.666;2024-01-25T04:35:01;22.27;;;12.30;;
41661;SDS011;27351;45.992;12.666;2024-01-25T04:37:27;24.05;;;12.88;;
41661;SDS011;27351;45.992;12.666;2024-01-25T04:39:53;24.00;;;13.10;;
41661;SDS011;27351;45.992;12.666;2024-01-25T04:42:18;24.80;;;13.68;;
41661;SDS011;27351;45.992;12.666;2024-01-25T04:44:44;21.48;;;12.23;;
41661;SDS011;27351;45.992;12.666;2024-01-25T04:47:10;22.43;;;12.13;;
41661;SDS011;27351;45.992;12.666;2024-01-25T04:49:36;21.50;;;11.40;;
41661;SDS011;27351;45.992;12.666;2024-01-25T04:52:01;20.02;;;11.07;;
41661;SDS011;27351;45.992;12.666;2024-01-25T04:54:27;21.98;;;10.85;;
41661;SDS011;27351;45.992;12.666;2024-01-25T04:56:53;21.45;;;10.18;;
41661;SDS011;27351;45.992;12.666;2024-01-25T04:59:18;19.27;;;10.33;;
41661;SDS011;27351;45.992;12.666;2024-01-25T05:01:44;17.17;;;9.93;;
41661;SDS011;27351;45.992;12.666;2024-01-25T05:04:10;20.13;;;10.83;;
41661;SDS011;27351;45.992;12.666;2024-01-25T05:06:35;21.53;;;11.27;;
41661;SDS011;27351;45.992;12.666;2024-01-25T05:09:02;20.80;;;10.27;;
41661;SDS011;27351;45.992;12.666;2024-01-25T05:11:28;20.90;;;9.50;;
41661;SDS011;27351;45.992;12.666;2024-01-25T05:13:54;20.20;;;10.38;;
41661;SDS011;27351;45.992;12.666;2024-01-25T05:16:19;18.60;;;10.85;;
41661;SDS011;27351;45.992;12.666;2024-01-25T05:18:45;18.05;;;9.50;;
41661;SDS011;27351;45.992;12.666;2024-01-25T05:21:10;20.08;;;10.68;;
41661;SDS011;27351;45.992;12.666;2024-01-25T05:23:36;17.27;;;9.88;;
41661;SDS011;27351;45.992;12.666;2024-01-25T05:26:02;19.48;;;10.32;;
41661;SDS011;27351;45.992;12.666;2024-01-25T05:28:27;18.08;;;9.38;;
41661;SDS011;27351;45.992;12.666;2024-01-25T05:30:53;19.88;;;10.75;;
41661;SDS011;27351;45.992;12.666;2024-01-25T05:33:18;17.23;;;10.20;;
41661;SDS011;27351;45.992;12.666;2024-01-25T05:35:44;24.77;;;11.07;;
41661;SDS011;27351;45.992;12.666;2024-01-25T05:38:09;20.25;;;10.98;;
41661;SDS011;27351;45.992;12.666;2024-01-25T05:40:35;19.17;;;9.82;;
41661;SDS011;27351;45.992;12.666;2024-01-25T05:43:01;20.17;;;10.02;;
41661;SDS011;27351;45.992;12.666;2024-01-25T05:45:26;19.15;;;9.82;;
41661;SDS011;27351;45.992;12.666;2024-01-25T05:47:52;19.42;;;9.90;;
41661;SDS011;27351;45.992;12.666;2024-01-25T05:50:18;18.70;;;10.50;;
41661;SDS011;27351;45.992;12.666;2024-01-25T05:52:43;16.25;;;9.57;;
41661;SDS011;27351;45.992;12.666;2024-01-25T05:55:09;19.25;;;9.80;;
41661;SDS011;27351;45.992;12.666;2024-01-25T05:57:35;19.60;;;10.67;;
41661;SDS011;27351;45.992;12.666;2024-01-25T06:00:01;18.42;;;9.65;;
41661;SDS011;27351;45.992;12.666;2024-01-25T06:02:26;20.08;;;10.52;;
41661;SDS011;27351;45.992;12.666;2024-01-25T06:04:52;19.63;;;10.10;;
41661;SDS011;27351;45.992;12.666;2024-01-25T06:07:18;20.70;;;10.55;;
41661;SDS011;27351;45.992;12.666;2024-01-25T06:09:43;21.42;;;11.10;;
41661;SDS011;27351;45.992;12.666;2024-01-25T06:12:09;17.85;;;10.02;;
41661;SDS011;27351;45.992;12.666;2024-01-25T06:14:34;18.85;;;9.98;;
41661;SDS011;27351;45.992;12.666;2024-01-25T06:17:00;18.70;;;9.90;;
41661;SDS011;27351;45.992;12.666;2024-01-25T06:19:25;20.50;;;10.55;;
41661;SDS011;27351;45.992;12.666;2024-01-25T06:21:51;22.55;;;11.48;;
41661;SDS011;27351;45.992;12.666;2024-01-25T06:24:17;23.58;;;11.43;;
41661;SDS011;27351;45.992;12.666;2024-01-25T06:26:42;21.38;;;11.52;;
41661;SDS011;27351;45.992;12.666;2024-01-25T06:29:08;20.58;;;10.85;;
41661;SDS011;27351;45.992;12.666;2024-01-25T06:31:40;20.17;;;10.70;;
41661;SDS011;27351;45.992;12.666;2024-01-25T06:34:05;21.00;;;11.57;;
41661;SDS011;27351;45.992;12.666;2024-01-25T06:36:31;21.37;;;11.10;;
41661;SDS011;27351;45.992;12.666;2024-01-25T06:38:56;18.10;;;9.97;;
41661;SDS011;27351;45.992;12.666;2024-01-25T06:41:22;18.57;;;10.50;;
41661;SDS011;27351;45.992;12.666;2024-01-25T06:43:48;18.73;;;11.27;;
41661;SDS011;27351;45.992;12.666;2024-01-25T06:46:13;23.00;;;12.70;;
41661;SDS011;27351;45.992;12.666;2024-01-25T06:48:39;21.50;;;11.30;;
41661;SDS011;27351;45.992;12.666;2024-01-25T06:51:04;20.23;;;10.17;;
41661;SDS011;27351;45.992;12.666;2024-01-25T06:53:30;19.27;;;11.10;;
41661;SDS011;27351;45.992;12.666;2024-01-25T06:55:56;19.47;;;11.37;;
41661;SDS011;27351;45.992;12.666;2024-01-25T06:58:21;17.88;;;10.10;;
41661;SDS011;27351;45.992;12.666;2024-01-25T07:00:47;18.83;;;10.80;;
41661;SDS011;27351;45.992;12.666;2024-01-25T07:03:12;18.60;;;10.40;;
41661;SDS011;27351;45.992;12.666;2024-01-25T07:05:38;20.88;;;11.82;;
41661;SDS011;27351;45.992;12.666;2024-01-25T07:08:04;21.40;;;11.18;;
41661;SDS011;27351;45.992;12.666;2024-01-25T07:10:30;19.70;;;10.07;;
41661;SDS011;27351;45.992;12.666;2024-01-25T07:12:55;34.47;;;16.33;;
41661;SDS011;27351;45.992;12.666;2024-01-25T07:15:21;32.47;;;15.77;;
41661;SDS011;27351;45.992;12.666;2024-01-25T07:17:47;19.77;;;10.50;;
41661;SDS011;27351;45.992;12.666;2024-01-25T07:20:12;18.47;;;10.17;;
41661;SDS011;27351;45.992;12.666;2024-01-25T07:22:38;18.58;;;10.13;;
41661;SDS011;27351;45.992;12.666;2024-01-25T07:25:04;21.23;;;11.00;;
41661;SDS011;27351;45.992;12.666;2024-01-25T07:27:30;23.67;;;11.47;;
41661;SDS011;27351;45.992;12.666;2024-01-25T07:29:55;23.13;;;11.60;;
41661;SDS011;27351;45.992;12.666;2024-01-25T07:32:21;21.97;;;12.00;;
41661;SDS011;27351;45.992;12.666;2024-01-25T07:34:49;21.58;;;10.38;;
41661;SDS011;27351;45.992;12.666;2024-01-25T07:37:15;21.75;;;11.50;;
41661;SDS011;27351;45.992;12.666;2024-01-25T07:39:41;22.17;;;12.82;;
41661;SDS011;27351;45.992;12.666;2024-01-25T07:42:07;21.48;;;12.38;;
41661;SDS011;27351;45.992;12.666;2024-01-25T07:44:32;22.02;;;11.15;;
41661;SDS011;27351;45.992;12.666;2024-01-25T07:46:58;21.45;;;11.05;;
41661;SDS011;27351;45.992;12.666;2024-01-25T07:49:23;17.27;;;9.98;;
41661;SDS011;27351;45.992;12.666;2024-01-25T07:51:49;21.60;;;10.93;;
41661;SDS011;27351;45.992;12.666;2024-01-25T07:54:15;17.77;;;9.93;;
41661;SDS011;27351;45.992;12.666;2024-01-25T07:56:41;18.50;;;10.68;;
41661;SDS011;27351;45.992;12.666;2024-01-25T07:59:06;22.93;;;10.90;;
41661;SDS011;27351;45.992;12.666;2024-01-25T08:01:32;20.47;;;10.47;;
41661;SDS011;27351;45.992;12.666;2024-01-25T08:03:58;20.10;;;10.38;;
41661;SDS011;27351;45.992;12.666;2024-01-25T08:06:25;19.77;;;10.55;;
41661;SDS011;27351;45.992;12.666;2024-01-25T08:08:51;22.20;;;10.93;;
41661;SDS011;27351;45.992;12.666;2024-01-25T08:11:17;23.73;;;10.90;;
41661;SDS011;27351;45.992;12.666;2024-01-25T08:13:45;22.20;;;10.93;;
41661;SDS011;27351;45.992;12.666;2024-01-25T08:16:11;22.05;;;11.27;;
41661;SDS011;27351;45.992;12.666;2024-01-25T08:18:37;29.23;;;11.90;;
41661;SDS011;27351;45.992;12.666;2024-01-25T08:21:03;26.25;;;12.80;;
41661;SDS011;27351;45.992;12.666;2024-01-25T08:23:28;27.20;;;14.20;;
41661;SDS011;27351;45.992;12.666;2024-01-25T08:25:54;23.00;;;13.07;;
41661;SDS011;27351;45.992;12.666;2024-01-25T08:28:20;23.92;;;11.88;;
41661;SDS011;27351;45.992;12.666;2024-01-25T08:30:47;21.42;;;11.88;;
41661;SDS011;27351;45.992;12.666;2024-01-25T08:33:13;23.17;;;11.27;;
41661;SDS011;27351;45.992;12.666;2024-01-25T08:35:39;22.77;;;12.35;;
41661;SDS011;27351;45.992;12.666;2024-01-25T08:38:06;24.33;;;12.10;;
41661;SDS011;27351;45.992;12.666;2024-01-25T08:40:32;26.13;;;13.13;;
41661;SDS011;27351;45.992;12.666;2024-01-25T08:42:58;24.63;;;13.10;;
41661;SDS011;27351;45.992;12.666;2024-01-25T08:45:23;24.87;;;13.07;;
41661;SDS011;27351;45.992;12.666;2024-01-25T08:47:49;21.47;;;11.63;;
41661;SDS011;27351;45.992;12.666;2024-01-25T08:50:16;24.10;;;12.65;;
41661;SDS011;27351;45.992;12.666;2024-01-25T08:52:42;23.67;;;11.40;;
41661;SDS011;27351;45.992;12.666;2024-01-25T08:55:07;26.50;;;10.80;;
41661;SDS011;27351;45.992;12.666;2024-01-25T08:57:35;21.83;;;11.05;;
41661;SDS011;27351;45.992;12.666;2024-01-25T09:00:00;21.80;;;10.20;;
41661;SDS011;27351;45.992;12.666;2024-01-25T09:02:27;20.23;;;10.95;;
41661;SDS011;27351;45.992;12.666;2024-01-25T09:04:55;20.05;;;9.98;;
41661;SDS011;27351;45.992;12.666;2024-01-25T09:07:21;19.52;;;9.95;;
41661;SDS011;27351;45.992;12.666;2024-01-25T09:09:47;17.53;;;9.80;;
41661;SDS011;27351;45.992;12.666;2024-01-25T09:12:13;19.87;;;10.77;;
41661;SDS011;27351;45.992;12.666;2024-01-25T09:14:39;18.10;;;9.60;;
41661;SDS011;27351;45.992;12.666;2024-01-25T09:17:05;21.05;;;10.10;;
41661;SDS011;27351;45.992;12.666;2024-01-25T09:19:31;23.77;;;10.20;;
41661;SDS011;27351;45.992;12.666;2024-01-25T09:21:56;19.05;;;10.45;;
41661;SDS011;27351;45.992;12.666;2024-01-25T09:24:25;27.10;;;12.18;;
41661;SDS011;27351;45.992;12.666;2024-01-25T09:26:50;21.75;;;12.15;;
41661;SDS011;27351;45.992;12.666;2024-01-25T09:29:16;20.55;;;11.90;;
41661;SDS011;27351;45.992;12.666;2024-01-25T09:31:42;22.63;;;12.05;;
41661;SDS011;27351;45.992;12.666;2024-01-25T09:34:07;22.40;;;12.40;;
41661;SDS011;27351;45.992;12.666;2024-01-25T09:36:33;21.88;;;11.07;;
41661;SDS011;27351;45.992;12.666;2024-01-25T09:38:59;20.17;;;10.88;;
41661;SDS011;27351;45.992;12.666;2024-01-25T09:41:24;21.05;;;11.18;;
41661;SDS011;27351;45.992;12.666;2024-01-25T09:43:50;18.27;;;10.52;;
41661;SDS011;27351;45.992;12.666;2024-01-25T09:46:15;21.50;;;10.65;;
41661;SDS011;27351;45.992;12.666;2024-01-25T09:48:42;22.33;;;10.80;;
41661;SDS011;27351;45.992;12.666;2024-01-25T09:51:09;19.70;;;9.98;;
41661;SDS011;27351;45.992;12.666;2024-01-25T09:53:36;18.10;;;9.70;;
41661;SDS011;27351;45.992;12.666;2024-01-25T09:56:12;19.27;;;10.07;;
41661;SDS011;27351;45.992;12.666;2024-01-25T09:58:41;19.33;;;9.93;;
41661;SDS011;27351;45.992;12.666;2024-01-25T10:01:11;16.35;;;9.35;;
41661;SDS011;27351;45.992;12.666;2024-01-25T10:03:44;18.63;;;9.63;;
41661;SDS011;27351;45.992;12.666;2024-01-25T10:06:13;18.77;;;9.23;;
41661;SDS011;27351;45.992;12.666;2024-01-25T10:08:38;18.50;;;8.83;;
41661;SDS011;27351;45.992;12.666;2024-01-25T10:11:04;17.20;;;9.23;;
41661;SDS011;27351;45.992;12.666;2024-01-25T10:13:30;19.05;;;9.98;;
41661;SDS011;27351;45.992;12.666;2024-01-25T10:15:57;18.13;;;9.27;;
41661;SDS011;27351;45.992;12.666;2024-01-25T10:18:23;17.70;;;9.20;;
41661;SDS011;27351;45.992;12.666;2024-01-25T10:20:49;17.33;;;9.23;;
41661;SDS011;27351;45.992;12.666;2024-01-25T10:23:15;18.25;;;9.20;;
41661;SDS011;27351;45.992;12.666;2024-01-25T10:25:41;17.15;;;8.88;;
41661;SDS011;27351;45.992;12.666;2024-01-25T10:28:07;18.97;;;9.10;;
41661;SDS011;27351;45.992;12.666;2024-01-25T10:30:35;17.63;;;8.13;;
41661;SDS011;27351;45.992;12.666;2024-01-25T10:33:02;14.27;;;8.18;;
41661;SDS011;27351;45.992;12.666;2024-01-25T10:35:28;14.50;;;7.70;;
41661;SDS011;27351;45.992;12.666;2024-01-25T10:37:54;16.45;;;7.95;;
41661;SDS011;27351;45.992;12.666;2024-01-25T10:40:20;17.63;;;8.18;;
41661;SDS011;27351;45.992;12.666;2024-01-25T10:42:46;16.25;;;7.10;;
41661;SDS011;27351;45.992;12.666;2024-01-25T10:45:12;14.15;;;7.72;;
41661;SDS011;27351;45.992;12.666;2024-01-25T10:47:37;15.65;;;7.65;;
41661;SDS011;27351;45.992;12.666;2024-01-25T10:50:06;14.23;;;7.27;;
41661;SDS011;27351;45.992;12.666;2024-01-25T10:52:34;15.10;;;6.97;;
41661;SDS011;27351;45.992;12.666;2024-01-25T10:55:01;13.80;;;7.03;;
41661;SDS011;27351;45.992;12.666;2024-01-25T10:57:34;13.00;;;6.93;;
41661;SDS011;27351;45.992;12.666;2024-01-25T11:00:00;14.10;;;6.75;;
41661;SDS011;27351;45.992;12.666;2024-01-25T11:02:29;14.02;;;6.35;;
41661;SDS011;27351;45.992;12.666;2024-01-25T11:04:55;14.80;;;7.03;;
41661;SDS011;27351;45.992;12.666;2024-01-25T11:07:20;12.40;;;6.28;;
41661;SDS011;27351;45.992;12.666;2024-01-25T11:09:46;14.77;;;7.10;;
41661;SDS011;27351;45.992;12.666;2024-01-25T11:12:17;14.70;;;6.88;;
41661;SDS011;27351;45.992;12.666;2024-01-25T11:14:43;14.32;;;7.30;;
41661;SDS011;27351;45.992;12.666;2024-01-25T11:17:15;13.17;;;6.33;;
41661;SDS011;27351;45.992;12.666;2024-01-25T11:19:43;14.27;;;5.93;;
41661;SDS011;27351;45.992;12.666;2024-01-25T11:22:10;10.90;;;6.10;;
41661;SDS011;27351;45.992;12.666;2024-01-25T11:24:37;13.07;;;6.50;;
41661;SDS011;27351;45.992;12.666;2024-01-25T11:27:04;13.45;;;6.47;;
41661;SDS011;27351;45.992;12.666;2024-01-25T11:29:30;11.70;;;5.93;;
41661;SDS011;27351;45.992;12.666;2024-01-25T11:31:55;9.93;;;5.38;;
41661;SDS011;27351;45.992;12.666;2024-01-25T11:34:22;9.70;;;4.73;;
41661;SDS011;27351;45.992;12.666;2024-01-25T11:36:47;10.50;;;5.18;;
41661;SDS011;27351;45.992;12.666;2024-01-25T11:39:13;10.63;;;5.53;;
41661;SDS011;27351;45.992;12.666;2024-01-25T11:41:40;13.00;;;6.35;;
41661;SDS011;27351;45.992;12.666;2024-01-25T11:44:07;11.00;;;5.50;;
41661;SDS011;27351;45.992;12.666;2024-01-25T11:46:32;9.90;;;5.68;;
41661;SDS011;27351;45.992;12.666;2024-01-25T11:48:58;12.35;;;5.75;;
41661;SDS011;27351;45.992;12.666;2024-01-25T11:51:24;10.30;;;5.82;;
41661;SDS011;27351;45.992;12.666;2024-01-25T11:53:49;14.23;;;6.97;;
41661;SDS011;27351;45.992;12.666;2024-01-25T11:56:23;14.00;;;6.60;;
41661;SDS011;27351;45.992;12.666;2024-01-25T11:58:50;13.63;;;6.28;;
41661;SDS011;27351;45.992;12.666;2024-01-25T12:01:16;13.10;;;6.53;;
41661;SDS011;27351;45.992;12.666;2024-01-25T12:03:43;12.63;;;5.63;;
41661;SDS011;27351;45.992;12.666;2024-01-25T12:06:09;11.65;;;5.78;;
41661;SDS011;27351;45.992;12.666;2024-01-25T12:08:34;12.77;;;6.80;;
41661;SDS011;27351;45.992;12.666;2024-01-25T12:11:09;12.15;;;6.38;;
41661;SDS011;27351;45.992;12.666;2024-01-25T12:13:36;10.68;;;6.10;;
41661;SDS011;27351;45.992;12.666;2024-01-25T12:16:04;14.80;;;6.68;;
41661;SDS011;27351;45.992;12.666;2024-01-25T12:18:30;14.05;;;7.13;;
41661;SDS011;27351;45.992;12.666;2024-01-25T12:20:58;13.85;;;7.88;;
41661;SDS011;27351;45.992;12.666;2024-01-25T12:23:29;15.63;;;7.03;;
41661;SDS011;27351;45.992;12.666;2024-01-25T12:25:55;15.65;;;8.48;;
41661;SDS011;27351;45.992;12.666;2024-01-25T12:28:25;16.58;;;8.98;;
41661;SDS011;27351;45.992;12.666;2024-01-25T12:30:51;14.93;;;7.68;;
41661;SDS011;27351;45.992;12.666;2024-01-25T12:33:16;13.90;;;8.13;;
41661;SDS011;27351;45.992;12.666;2024-01-25T12:35:42;14.55;;;8.20;;
41661;SDS011;27351;45.992;12.666;2024-01-25T12:38:08;16.40;;;8.38;;
41661;SDS011;27351;45.992;12.666;2024-01-25T12:40:33;16.63;;;8.27;;
41661;SDS011;27351;45.992;12.666;2024-01-25T12:42:59;15.35;;;8.32;;
41661;SDS011;27351;45.992;12.666;2024-01-25T12:45:24;14.23;;;8.52;;
41661;SDS011;27351;45.992;12.666;2024-01-25T12:47:50;16.03;;;8.37;;
41661;SDS011;27351;45.992;12.666;2024-01-25T12:50:18;15.02;;;8.13;;
41661;SDS011;27351;45.992;12.666;2024-01-25T12:52:44;13.13;;;6.53;;
41661;SDS011;27351;45.992;12.666;2024-01-25T12:55:10;12.67;;;6.30;;
41661;SDS011;27351;45.992;12.666;2024-01-25T12:57:36;11.60;;;6.47;;
41661;SDS011;27351;45.992;12.666;2024-01-25T13:00:02;12.53;;;6.27;;
41661;SDS011;27351;45.992;12.666;2024-01-25T13:02:27;12.97;;;6.33;;
41661;SDS011;27351;45.992;12.666;2024-01-25T13:04:53;14.40;;;6.97;;
41661;SDS011;27351;45.992;12.666;2024-01-25T13:07:19;14.97;;;6.97;;
41661;SDS011;27351;45.992;12.666;2024-01-25T13:09:44;12.97;;;7.33;;
41661;SDS011;27351;45.992;12.666;2024-01-25T13:12:10;14.50;;;7.15;;
41661;SDS011;27351;45.992;12.666;2024-01-25T13:14:36;13.37;;;6.57;;
41661;SDS011;27351;45.992;12.666;2024-01-25T13:17:02;16.10;;;6.17;;
41661;SDS011;27351;45.992;12.666;2024-01-25T13:19:27;11.37;;;6.23;;
41661;SDS011;27351;45.992;12.666;2024-01-25T13:21:53;10.67;;;4.83;;
41661;SDS011;27351;45.992;12.666;2024-01-25T13:24:18;11.23;;;5.93;;
41661;SDS011;27351;45.992;12.666;2024-01-25T13:26:44;13.37;;;5.87;;
41661;SDS011;27351;45.992;12.666;2024-01-25T13:29:10;10.87;;;5.53;;
41661;SDS011;27351;45.992;12.666;2024-01-25T13:31:39;10.47;;;5.00;;
41661;SDS011;27351;45.992;12.666;2024-01-25T13:34:05;10.50;;;5.22;;
41661;SDS011;27351;45.992;12.666;2024-01-25T13:36:30;11.45;;;5.72;;
41661;SDS011;27351;45.992;12.666;2024-01-25T13:38:56;11.60;;;4.90;;
41661;SDS011;27351;45.992;12.666;2024-01-25T13:41:21;13.33;;;4.87;;
41661;SDS011;27351;45.992;12.666;2024-01-25T13:43:47;10.17;;;5.03;;
41661;SDS011;27351;45.992;12.666;2024-01-25T13:46:13;12.50;;;5.60;;
41661;SDS011;27351;45.992;12.666;2024-01-25T13:48:38;11.80;;;5.70;;
41661;SDS011;27351;45.992;12.666;2024-01-25T13:51:04;13.40;;;4.85;;
41661;SDS011;27351;45.992;12.666;2024-01-25T13:53:30;10.90;;;5.18;;
41661;SDS011;27351;45.992;12.666;2024-01-25T13:55:55;10.60;;;5.30;;
41661;SDS011;27351;45.992;12.666;2024-01-25T13:58:21;8.63;;;4.60;;
41661;SDS011;27351;45.992;12.666;2024-01-25T14:00:47;10.38;;;5.13;;
41661;SDS011;27351;45.992;12.666;2024-01-25T14:03:14;12.20;;;4.40;;
41661;SDS011;27351;45.992;12.666;2024-01-25T14:05:40;7.60;;;4.20;;
41661;SDS011;27351;45.992;12.666;2024-01-25T14:08:05;9.18;;;3.75;;